createdAt,value
2017-10-27T00:00:37.756Z,78.90
2017-10-27T00:03:05.833Z,78.60
2017-10-27T00:05:33.933Z,78.30
2017-10-27T00:08:02.030Z,78.10
2017-10-27T00:10:30.149Z,78.10
2017-10-27T00:12:58.230Z,77.90
2017-10-27T00:15:26.318Z,77.10
2017-10-27T00:17:54.419Z,77.60
2017-10-27T00:20:22.525Z,77.40
2017-10-27T00:22:50.630Z,76.80
2017-10-27T00:25:18.714Z,76.70
2017-10-27T00:27:46.825Z,76.70
2017-10-27T00:30:15.671Z,77.60
2017-10-27T00:32:43.783Z,76.00
2017-10-27T00:35:12.642Z,76.80
2017-10-27T00:37:41.499Z,75.60
2017-10-27T00:40:09.618Z,74.90
2017-10-27T00:42:37.708Z,74.40
2017-10-27T00:45:05.793Z,73.60
2017-10-27T00:47:35.406Z,74.30
2017-10-27T00:50:04.275Z,73.50
2017-10-27T00:52:32.354Z,71.90
2017-10-27T00:55:01.217Z,72.50
2017-10-27T00:57:29.303Z,71.50
2017-10-27T00:59:57.399Z,71.60
2017-10-27T01:02:26.286Z,71.60
2017-10-27T01:04:55.127Z,72.50
2017-10-27T01:07:23.210Z,71.30
2017-10-27T01:09:51.317Z,71.80
2017-10-27T01:12:19.407Z,71.60
2017-10-27T01:14:48.271Z,71.60
2017-10-27T01:17:16.357Z,72.60
2017-10-27T01:19:45.594Z,73.20
2017-10-27T01:22:13.686Z,72.90
2017-10-27T01:24:42.177Z,73.40
2017-10-27T01:27:11.073Z,72.70
2017-10-27T01:29:39.146Z,72.70
2017-10-27T01:32:07.266Z,73.40
2017-10-27T01:34:35.353Z,73.10
2017-10-27T01:37:03.849Z,73.30
2017-10-27T01:39:31.950Z,74.20
2017-10-27T01:42:01.560Z,74.60
2017-10-27T01:50:23.122Z,73.90
2017-10-27T01:52:51.975Z,74.60
2017-10-27T01:55:20.042Z,73.90
2017-10-27T01:57:48.124Z,74.00
2017-10-27T02:00:16.189Z,73.80
2017-10-27T02:02:44.264Z,73.70
2017-10-27T02:05:12.338Z,75.00
2017-10-27T02:07:40.405Z,73.30
2017-10-27T02:10:09.630Z,72.90
2017-10-27T02:12:37.699Z,73.30
2017-10-27T02:15:05.768Z,73.50
2017-10-27T02:17:33.846Z,74.20
2017-10-27T02:20:01.919Z,72.80
2017-10-27T02:22:31.511Z,70.90
2017-10-27T02:24:59.573Z,69.80
2017-10-27T02:27:28.410Z,71.70
2017-10-27T02:29:57.240Z,70.90
2017-10-27T02:32:25.310Z,65.20
2017-10-27T02:34:53.381Z,64.20
2017-10-27T02:37:21.435Z,58.70
2017-10-27T02:39:49.490Z,61.00
2017-10-27T02:42:18.326Z,55.90
2017-10-27T02:44:46.402Z,53.90
2017-10-27T02:47:14.461Z,52.90
2017-10-27T02:49:42.515Z,51.40
2017-10-27T02:52:10.575Z,51.50
2017-10-27T02:54:39.396Z,51.20
2017-10-27T02:57:07.462Z,51.40
2017-10-27T02:59:35.517Z,51.80
2017-10-27T03:02:03.590Z,52.70
2017-10-27T03:04:32.415Z,53.50
2017-10-27T03:07:01.250Z,54.00
2017-10-27T03:09:30.077Z,55.30
2017-10-27T03:11:58.126Z,55.50
2017-10-27T03:14:26.971Z,54.50
2017-10-27T03:16:55.417Z,57.10
2017-10-27T03:19:24.242Z,57.30
2017-10-27T03:21:52.306Z,59.20
2017-10-27T03:24:20.359Z,56.90
2017-10-27T03:29:17.745Z,59.20
2017-10-27T03:31:45.803Z,59.00
2017-10-27T03:34:15.012Z,60.70
2017-10-27T03:36:43.474Z,60.20
2017-10-27T03:39:11.547Z,61.80
2017-10-27T03:41:39.599Z,60.20
2017-10-27T03:44:07.655Z,61.30
2017-10-27T03:46:36.129Z,61.20
2017-10-27T03:49:04.187Z,62.20
2017-10-27T03:51:33.745Z,62.70
2017-10-27T03:54:01.817Z,62.90
2017-10-27T03:56:29.873Z,60.20
2017-10-27T03:58:58.702Z,62.30
2017-10-27T04:01:26.768Z,63.20
2017-10-27T04:03:54.849Z,63.40
2017-10-27T04:06:22.906Z,63.10
2017-10-27T04:08:51.349Z,64.60
2017-10-27T04:11:19.414Z,63.30
2017-10-27T04:13:47.473Z,61.90
2017-10-27T04:16:16.303Z,61.10
2017-10-27T04:18:45.143Z,61.60
2017-10-27T04:21:14.151Z,61.50
2017-10-27T04:23:42.978Z,61.20
2017-10-27T04:26:11.050Z,62.50
2017-10-27T04:28:39.109Z,61.50
2017-10-27T04:31:07.182Z,63.50
2017-10-27T04:33:35.526Z,62.20
2017-10-27T04:36:03.547Z,61.50
2017-10-27T04:38:31.607Z,60.70
2017-10-27T04:41:00.815Z,61.10
2017-10-27T04:43:28.874Z,60.40
2017-10-27T04:45:57.706Z,61.30
2017-10-27T04:48:26.157Z,63.20
2017-10-27T04:50:54.641Z,65.80
2017-10-27T04:53:23.458Z,66.30
2017-10-27T04:55:51.510Z,65.00
2017-10-27T04:58:19.583Z,62.90
2017-10-27T05:00:47.630Z,61.60
2017-10-27T05:03:15.677Z,62.10
2017-10-27T05:05:44.522Z,62.30
2017-10-27T05:08:12.573Z,62.40
2017-10-27T05:10:40.632Z,62.80
2017-10-27T05:13:08.699Z,61.60
2017-10-27T05:15:36.770Z,61.10
2017-10-27T05:18:10.562Z,61.50
2017-10-27T05:20:45.190Z,61.80
2017-10-27T05:23:19.745Z,60.80
2017-10-27T05:25:47.826Z,61.20
2017-10-27T05:28:15.873Z,60.20
2017-10-27T05:30:43.921Z,59.70
2017-10-27T05:33:12.766Z,62.10
2017-10-27T05:35:40.813Z,62.00
2017-10-27T05:38:08.866Z,63.70
2017-10-27T05:40:37.690Z,64.10
2017-10-27T05:43:05.737Z,65.30
2017-10-27T05:45:34.199Z,64.70
2017-10-27T05:48:03.020Z,63.50
2017-10-27T05:50:31.093Z,64.70
2017-10-27T05:52:59.146Z,64.40
2017-10-27T05:55:27.202Z,62.60
2017-10-27T05:57:56.017Z,61.90
2017-10-27T06:00:24.079Z,62.00
2017-10-27T06:02:52.905Z,63.30
2017-10-27T06:05:20.969Z,64.40
2017-10-27T06:07:49.021Z,63.20
2017-10-27T06:10:17.110Z,63.50
2017-10-27T06:12:45.170Z,63.40
2017-10-27T06:15:13.221Z,64.30
2017-10-27T06:17:42.054Z,66.20
2017-10-27T06:20:10.102Z,63.30
2017-10-27T06:22:38.205Z,61.80
2017-10-27T06:25:06.274Z,61.80
2017-10-27T06:27:35.098Z,62.60
2017-10-27T06:30:03.146Z,61.80
2017-10-27T06:32:31.206Z,64.10
2017-10-27T06:34:59.262Z,63.50
2017-10-27T06:37:27.340Z,61.80
2017-10-27T06:39:55.385Z,61.40
2017-10-27T06:42:23.443Z,62.90
2017-10-27T06:44:52.274Z,63.00
2017-10-27T06:47:20.322Z,62.00
2017-10-27T06:49:48.386Z,62.30
2017-10-27T06:52:16.455Z,62.20
2017-10-27T06:54:45.286Z,62.30
2017-10-27T06:57:13.347Z,62.30
2017-10-27T06:59:41.409Z,61.50
2017-10-27T07:02:09.461Z,62.40
2017-10-27T07:04:37.547Z,61.70
2017-10-27T07:07:06.403Z,62.20
2017-10-27T07:09:34.461Z,61.30
2017-10-27T07:12:02.513Z,60.80
2017-10-27T07:14:30.593Z,58.80
2017-10-27T07:16:58.641Z,58.90
2017-10-27T07:19:26.694Z,59.60
2017-10-27T07:21:54.752Z,60.00
2017-10-27T07:24:22.813Z,58.20
2017-10-27T07:26:51.661Z,59.30
2017-10-27T07:29:19.713Z,57.50
2017-10-27T07:31:47.766Z,56.70
2017-10-27T07:34:15.842Z,57.10
2017-10-27T07:36:43.894Z,57.10
2017-10-27T07:39:12.713Z,57.00
2017-10-27T07:41:41.173Z,54.40
2017-10-27T07:44:09.226Z,52.90
2017-10-27T07:46:38.041Z,51.20
2017-10-27T07:49:06.110Z,49.60
2017-10-27T07:51:34.190Z,48.70
2017-10-27T07:54:02.246Z,48.00
2017-10-27T07:58:59.634Z,48.50
2017-10-27T08:01:27.706Z,50.10
2017-10-27T08:03:55.753Z,50.40
2017-10-27T08:06:24.585Z,50.40
2017-10-27T08:08:52.654Z,50.20
2017-10-27T08:11:22.214Z,50.90
2017-10-27T08:13:51.038Z,49.10
2017-10-27T08:16:19.482Z,45.10
2017-10-27T08:18:48.509Z,43.40
2017-10-27T08:21:16.565Z,41.90
2017-10-27T08:23:44.614Z,42.00
2017-10-27T08:26:13.454Z,41.10
2017-10-27T08:28:41.510Z,42.10
2017-10-27T08:31:09.562Z,41.50
2017-10-27T08:33:38.401Z,38.80
2017-10-27T08:36:06.453Z,35.60
2017-10-27T08:38:34.501Z,35.30
2017-10-27T08:41:02.574Z,31.80
2017-10-27T08:43:31.399Z,31.30
2017-10-27T08:45:59.446Z,29.50
2017-10-27T08:48:27.518Z,28.70
2017-10-27T08:50:55.593Z,28.40
2017-10-27T08:53:23.641Z,28.70
2017-10-27T08:55:52.474Z,28.50
2017-10-27T08:58:20.521Z,26.80
2017-10-27T09:00:48.585Z,26.50
2017-10-27T09:03:18.145Z,27.30
2017-10-27T09:05:46.213Z,26.10
2017-10-27T09:08:14.278Z,24.20
2017-10-27T09:10:42.334Z,24.90
2017-10-27T09:13:10.409Z,24.80
2017-10-27T09:15:39.246Z,23.60
2017-10-27T09:18:07.298Z,24.30
2017-10-27T09:20:35.353Z,23.50
2017-10-27T09:23:03.418Z,23.60
2017-10-27T09:25:31.498Z,22.50
2017-10-27T09:27:59.946Z,22.10
2017-10-27T09:30:27.994Z,22.90
2017-10-27T09:32:56.825Z,23.60
2017-10-27T09:35:24.885Z,23.80
2017-10-27T09:37:52.963Z,24.00
2017-10-27T09:40:21.789Z,23.20
2017-10-27T09:42:49.846Z,24.30
2017-10-27T09:45:17.897Z,22.60
2017-10-27T09:47:45.964Z,22.80
2017-10-27T09:50:14.013Z,22.80
2017-10-27T09:52:42.083Z,21.60
2017-10-27T09:55:10.529Z,22.20
2017-10-27T09:57:38.609Z,21.80
2017-10-27T10:00:06.658Z,21.40
2017-10-27T10:02:34.714Z,21.90
2017-10-27T10:05:02.773Z,22.20
2017-10-27T10:07:30.838Z,22.10
2017-10-27T10:09:58.889Z,21.50
2017-10-27T10:12:27.730Z,20.80
2017-10-27T10:14:55.790Z,21.20
2017-10-27T10:17:23.834Z,21.10
2017-10-27T10:19:51.907Z,21.10
2017-10-27T10:22:19.982Z,19.70
2017-10-27T10:24:48.050Z,18.60
2017-10-27T10:27:16.113Z,19.40
2017-10-27T10:29:44.189Z,18.90
2017-10-27T10:32:12.238Z,17.30
2017-10-27T10:34:40.282Z,18.40
2017-10-27T10:37:08.342Z,18.30
2017-10-27T10:39:36.398Z,18.40
2017-10-27T10:42:04.469Z,18.40
2017-10-27T10:44:32.521Z,18.40
2017-10-27T10:47:00.569Z,18.30
2017-10-27T10:49:29.397Z,20.80
2017-10-27T10:51:57.462Z,22.60
2017-10-27T10:54:25.516Z,23.70
2017-10-27T10:56:54.347Z,23.80
2017-10-27T10:59:22.414Z,22.40
2017-10-27T11:04:19.800Z,17.00
2017-10-27T11:06:48.618Z,16.70
2017-10-27T11:09:16.682Z,15.30
2017-10-27T11:11:44.758Z,15.70
2017-10-27T11:14:12.813Z,14.50
2017-10-27T11:16:41.633Z,13.90
2017-10-27T11:19:10.476Z,14.50
2017-10-27T11:21:38.933Z,13.50
2017-10-27T11:24:06.981Z,14.30
2017-10-27T11:26:35.800Z,16.60
2017-10-27T11:29:03.874Z,17.70
2017-10-27T11:31:31.922Z,19.60
2017-10-27T11:33:59.987Z,20.80
2017-10-27T11:36:28.805Z,23.20
2017-10-27T11:38:56.870Z,23.90
2017-10-27T11:41:26.062Z,24.20
2017-10-27T11:43:54.130Z,25.30
2017-10-27T11:46:22.186Z,26.00
2017-10-27T11:48:51.017Z,24.20
2017-10-27T11:51:19.066Z,22.90
2017-10-27T11:53:47.141Z,23.70
2017-10-27T11:56:15.186Z,24.90
2017-10-27T11:58:44.006Z,26.50
2017-10-27T12:01:12.074Z,27.00
2017-10-27T12:03:40.154Z,28.30
2017-10-27T12:06:08.211Z,27.80
2017-10-27T12:08:36.657Z,28.10
2017-10-27T12:11:04.730Z,27.50
2017-10-27T12:13:33.188Z,23.00
2017-10-27T12:16:01.250Z,19.90
2017-10-27T12:18:29.297Z,16.10
2017-10-27T12:20:57.363Z,15.90
2017-10-27T12:23:25.410Z,15.10
2017-10-27T12:25:54.244Z,15.00
2017-10-27T12:28:22.289Z,14.10
2017-10-27T12:30:50.358Z,15.70
2017-10-27T12:33:18.412Z,16.30
2017-10-27T12:35:47.248Z,15.10
2017-10-27T12:38:15.302Z,14.10
2017-10-27T12:40:43.746Z,14.20
2017-10-27T12:43:11.809Z,15.50
2017-10-27T12:45:39.857Z,17.00
2017-10-27T12:48:08.685Z,17.70
2017-10-27T12:50:38.256Z,18.80
2017-10-27T12:53:07.073Z,20.50
2017-10-27T12:55:35.562Z,21.20
2017-10-27T12:58:04.379Z,22.30
2017-10-27T13:00:32.421Z,22.00
2017-10-27T13:03:01.249Z,23.50
2017-10-27T13:05:29.313Z,24.00
2017-10-27T13:07:57.391Z,25.20
2017-10-27T13:10:25.433Z,26.50
2017-10-27T13:12:54.270Z,27.70
2017-10-27T13:15:22.321Z,26.10
2017-10-27T13:17:50.377Z,24.80
2017-10-27T13:20:18.441Z,23.90
2017-10-27T13:22:47.261Z,25.30
2017-10-27T13:25:15.318Z,24.20
2017-10-27T13:27:43.380Z,24.50
2017-10-27T13:30:12.193Z,24.70
2017-10-27T13:32:40.257Z,24.80
2017-10-27T13:35:08.309Z,25.60
2017-10-27T13:37:37.139Z,26.20
2017-10-27T13:40:05.186Z,26.50
2017-10-27T13:42:33.276Z,26.00
2017-10-27T13:45:01.333Z,26.70
2017-10-27T13:47:29.378Z,27.10
2017-10-27T13:49:58.201Z,28.20
2017-10-27T13:52:27.398Z,26.80
2017-10-27T13:54:55.445Z,27.70
2017-10-27T13:57:24.275Z,28.20
2017-10-27T13:59:52.325Z,28.20
2017-10-27T14:02:20.407Z,28.20
2017-10-27T14:04:48.446Z,28.50
2017-10-27T14:07:17.649Z,29.00
2017-10-27T14:09:46.479Z,29.80
2017-10-27T14:12:14.538Z,29.10
2017-10-27T14:14:42.589Z,29.10
2017-10-27T14:17:12.048Z,29.20
2017-10-27T14:19:40.890Z,30.00
2017-10-27T14:22:08.948Z,29.10
2017-10-27T14:24:38.543Z,28.50
2017-10-27T14:27:07.371Z,28.90
2017-10-27T14:29:35.426Z,28.60
2017-10-27T14:32:03.493Z,28.50
2017-10-27T14:34:31.548Z,28.00
2017-10-27T14:37:00.357Z,29.70
2017-10-27T14:39:28.426Z,29.30
2017-10-27T14:41:56.486Z,29.50
2017-10-27T14:44:25.325Z,30.10
2017-10-27T14:46:53.373Z,30.00
2017-10-27T14:49:21.433Z,30.90
2017-10-27T14:51:49.498Z,30.00
2017-10-27T14:54:17.666Z,31.10
2017-10-27T14:56:46.491Z,31.80
2017-10-27T14:59:14.537Z,31.00
2017-10-27T15:01:42.647Z,30.50
2017-10-27T15:04:10.661Z,31.20
2017-10-27T15:06:39.489Z,31.20
2017-10-27T15:09:07.542Z,31.90
2017-10-27T15:11:35.606Z,32.90
2017-10-27T15:14:04.422Z,32.90
2017-10-27T15:16:32.485Z,33.50
2017-10-27T15:19:01.690Z,35.30
2017-10-27T15:21:29.750Z,34.90
2017-10-27T15:23:57.797Z,34.70
2017-10-27T15:26:27.001Z,34.00
2017-10-27T15:28:55.826Z,35.10
2017-10-27T15:31:23.897Z,34.60
2017-10-27T15:33:51.937Z,34.70
2017-10-27T15:36:20.766Z,35.50
2017-10-27T15:38:48.841Z,36.90
2017-10-27T15:41:16.873Z,39.10
2017-10-27T15:43:44.958Z,41.60
2017-10-27T15:46:13.006Z,43.80
2017-10-27T15:48:41.821Z,45.00
2017-10-27T15:51:09.886Z,45.40
2017-10-27T15:53:39.090Z,44.70
2017-10-27T15:56:07.155Z,46.20
2017-10-27T15:58:35.217Z,47.60
2017-10-27T16:01:04.043Z,48.30
2017-10-27T16:03:32.105Z,48.10
2017-10-27T16:06:00.919Z,47.20
2017-10-27T16:08:29.030Z,47.70
2017-10-27T16:10:57.862Z,48.20
2017-10-27T16:13:25.944Z,48.30
2017-10-27T16:15:54.009Z,48.20
2017-10-27T16:18:22.067Z,48.40
2017-10-27T16:20:50.112Z,47.30
2017-10-27T16:23:19.074Z,48.60
2017-10-27T16:25:47.137Z,47.40
2017-10-27T16:28:15.194Z,48.60
2017-10-27T16:30:43.263Z,48.80
2017-10-27T16:33:11.331Z,49.20
2017-10-27T16:35:39.386Z,49.30
2017-10-27T16:38:07.446Z,48.90
2017-10-27T16:40:35.506Z,47.60
2017-10-27T16:43:04.697Z,47.10
2017-10-27T16:45:33.534Z,49.00
2017-10-27T16:48:01.599Z,47.50
2017-10-27T16:50:29.666Z,46.20
2017-10-27T16:52:57.717Z,47.20
2017-10-27T16:55:25.782Z,46.70
2017-10-27T16:57:54.609Z,48.10
2017-10-27T17:00:22.665Z,48.70
2017-10-27T17:02:50.750Z,47.30
2017-10-27T17:05:18.770Z,46.30
2017-10-27T17:07:47.602Z,47.80
2017-10-27T17:10:15.657Z,47.70
2017-10-27T17:12:44.494Z,47.50
2017-10-27T17:15:12.546Z,46.50
2017-10-27T17:17:41.018Z,47.00
2017-10-27T17:20:09.070Z,44.00
2017-10-27T17:22:37.143Z,45.10
2017-10-27T17:25:05.199Z,46.30
2017-10-27T17:27:34.019Z,49.60
2017-10-27T17:30:02.083Z,47.50
2017-10-27T17:32:30.159Z,46.50
2017-10-27T17:34:58.215Z,46.30
2017-10-27T17:37:26.282Z,46.30
2017-10-27T17:39:55.130Z,49.30
2017-10-27T17:42:24.721Z,47.00
2017-10-27T17:44:53.162Z,46.50
2017-10-27T17:47:21.237Z,48.00
2017-10-27T17:49:49.289Z,47.30
2017-10-27T17:52:17.741Z,47.30
2017-10-27T17:54:45.821Z,46.20
2017-10-27T17:57:13.870Z,47.00
2017-10-27T17:59:41.921Z,47.20
2017-10-27T18:02:09.982Z,50.90
2017-10-27T18:04:38.033Z,50.90
2017-10-27T18:07:06.888Z,49.90
2017-10-27T18:09:34.953Z,49.60
2017-10-27T18:12:03.414Z,49.80
2017-10-27T18:14:31.463Z,50.00
2017-10-27T18:16:59.537Z,49.30
2017-10-27T18:19:27.586Z,49.50
2017-10-27T18:21:55.638Z,48.40
2017-10-27T18:24:25.041Z,49.80
2017-10-27T18:26:53.098Z,48.50
2017-10-27T18:29:21.130Z,48.00
2017-10-27T18:31:49.190Z,47.50
2017-10-27T18:34:17.270Z,47.30
2017-10-27T18:36:45.330Z,47.40
2017-10-27T18:39:14.158Z,48.60
2017-10-27T18:41:43.530Z,48.80
2017-10-27T18:44:12.341Z,48.50
2017-10-27T18:46:40.398Z,47.30
2017-10-27T18:49:08.489Z,49.40
2017-10-27T18:51:36.568Z,49.50
2017-10-27T18:54:04.634Z,47.20
2017-10-27T18:59:02.023Z,50.00
2017-10-27T19:01:30.850Z,49.60
2017-10-27T19:03:58.931Z,49.10
2017-10-27T19:06:28.113Z,49.40
2017-10-27T19:08:56.194Z,48.10
2017-10-27T19:11:25.776Z,47.70
2017-10-27T19:13:53.831Z,47.60
2017-10-27T19:16:21.895Z,50.00
2017-10-27T19:18:50.354Z,50.80
2017-10-27T19:21:19.242Z,51.20
2017-10-27T19:23:47.704Z,48.40
2017-10-27T19:28:45.119Z,50.10
2017-10-27T19:31:13.185Z,51.00
2017-10-27T19:33:41.265Z,50.20
2017-10-27T19:36:09.333Z,50.80
2017-10-27T19:38:38.547Z,53.20
2017-10-27T19:41:06.616Z,53.30
2017-10-27T19:43:34.690Z,53.30
2017-10-27T19:46:02.787Z,52.60
2017-10-27T19:48:32.360Z,51.90
2017-10-27T19:53:29.763Z,52.00
2017-10-27T19:55:57.864Z,53.00
2017-10-27T19:58:26.695Z,51.40
2017-10-27T20:00:54.778Z,54.10
2017-10-27T20:03:23.617Z,52.10
2017-10-27T20:05:52.444Z,53.90
2017-10-27T20:08:20.535Z,53.60
2017-10-27T20:10:48.598Z,56.50
2017-10-27T20:13:16.667Z,54.40
2017-10-27T20:15:45.862Z,56.10
2017-10-27T20:18:14.722Z,54.70
2017-10-27T20:20:43.183Z,54.60
2017-10-27T20:25:41.347Z,53.80
2017-10-27T20:28:09.418Z,54.50
2017-10-27T20:30:38.269Z,54.70
2017-10-27T20:33:06.335Z,55.80
2017-10-27T20:35:34.398Z,56.50
2017-10-27T20:38:02.481Z,53.90
2017-10-27T20:40:31.292Z,55.00
2017-10-27T20:43:00.119Z,57.80
2017-10-27T20:45:28.276Z,56.80
2017-10-27T20:50:25.644Z,58.10
2017-10-27T20:52:53.721Z,56.70
2017-10-27T20:55:21.782Z,58.30
2017-10-27T20:57:50.610Z,56.00
2017-10-27T21:00:19.496Z,59.30
2017-10-27T21:02:47.514Z,60.10
2017-10-27T21:05:15.582Z,59.70
2017-10-27T21:07:43.656Z,59.30
2017-10-27T21:10:12.108Z,60.10
2017-10-27T21:12:41.808Z,62.00
2017-10-27T21:15:09.869Z,62.30
2017-10-27T21:17:37.944Z,66.00
2017-10-27T21:20:05.995Z,66.60
2017-10-27T21:22:34.054Z,62.40
2017-10-27T21:25:02.105Z,63.70
2017-10-27T21:27:30.178Z,63.70
2017-10-27T21:29:58.234Z,59.00
2017-10-27T21:32:26.320Z,60.80
2017-10-27T21:34:54.373Z,61.80
2017-10-27T21:37:23.217Z,67.00
2017-10-27T21:39:51.292Z,64.70
2017-10-27T21:42:19.354Z,61.70
2017-10-27T21:44:48.187Z,64.40
2017-10-27T21:47:17.022Z,63.70
2017-10-27T21:49:45.854Z,62.90
2017-10-27T21:52:13.923Z,66.10
2017-10-27T21:54:41.983Z,64.50
2017-10-27T21:57:10.052Z,63.70
2017-10-27T21:59:38.110Z,62.20
2017-10-27T22:02:06.190Z,63.40
2017-10-27T22:04:34.268Z,58.40
2017-10-27T22:07:02.320Z,59.90
2017-10-27T22:09:30.383Z,58.40
2017-10-27T22:11:58.448Z,58.80
2017-10-27T22:14:26.528Z,61.30
2017-10-27T22:16:54.974Z,59.50
2017-10-27T22:19:23.044Z,58.30
2017-10-27T22:21:51.854Z,59.70
2017-10-27T22:24:19.924Z,60.80
2017-10-27T22:26:49.126Z,59.40
2017-10-27T22:29:17.212Z,60.50
2017-10-27T22:31:46.030Z,60.70
2017-10-27T22:34:14.104Z,58.80
2017-10-27T22:36:42.178Z,57.10
2017-10-27T22:39:11.378Z,58.80
2017-10-27T22:41:39.439Z,58.50
2017-10-27T22:44:07.531Z,56.90
2017-10-27T22:46:35.583Z,58.70
2017-10-27T22:49:03.635Z,58.40
2017-10-27T22:51:31.722Z,58.80
2017-10-27T22:53:59.773Z,59.70
2017-10-27T22:56:28.971Z,59.90
2017-10-27T22:58:57.037Z,57.50
2017-10-27T23:01:25.100Z,60.00
2017-10-27T23:03:53.174Z,59.00
2017-10-27T23:06:21.236Z,58.60
2017-10-27T23:08:49.294Z,60.00
2017-10-27T23:11:17.762Z,58.60
2017-10-27T23:16:15.170Z,61.50
2017-10-27T23:18:43.221Z,59.90
2017-10-27T23:21:11.350Z,60.50
2017-10-27T23:23:39.422Z,60.70
2017-10-27T23:26:07.477Z,58.00
2017-10-27T23:28:35.543Z,58.10
2017-10-27T23:31:04.375Z,58.10
2017-10-27T23:33:32.450Z,58.70
2017-10-27T23:36:01.633Z,60.00
2017-10-27T23:38:30.834Z,57.20
2017-10-27T23:40:58.922Z,58.10
2017-10-27T23:43:27.006Z,59.40
2017-10-27T23:45:55.083Z,58.40
2017-10-27T23:48:23.171Z,58.50
2017-10-27T23:50:51.231Z,57.40
2017-10-27T23:53:19.287Z,56.90
2017-10-27T23:55:47.363Z,57.20
2017-10-27T23:58:16.566Z,57.20
